createdAt,value
2017-07-18T00:08:58.087Z,1015.7
2017-07-18T00:19:13.315Z,1015.7
2017-07-18T00:29:28.829Z,1015.6
2017-07-18T00:39:43.210Z,1015.6
2017-07-18T00:49:58.410Z,1015.5
2017-07-18T01:00:12.941Z,1015.6
2017-07-18T01:10:27.618Z,1015.5
2017-07-18T01:20:42.681Z,1015.5
2017-07-18T01:30:56.815Z,1015.4
2017-07-18T01:41:10.639Z,1015.4
2017-07-18T01:51:25.810Z,1015.4
2017-07-18T02:01:40.582Z,1015.4
2017-07-18T02:11:54.848Z,1015.3
2017-07-18T02:22:10.112Z,1015.3
2017-07-18T02:32:24.253Z,1015.3
2017-07-18T02:42:38.189Z,1015.2
2017-07-18T02:52:52.332Z,1015.2
2017-07-18T03:03:06.297Z,1015.2
2017-07-18T03:13:20.264Z,1015.1
2017-07-18T03:23:34.332Z,1015.1
2017-07-18T03:33:48.035Z,1015.1
2017-07-18T03:44:03.354Z,1015
2017-07-18T03:54:17.931Z,1015.1
2017-07-18T04:04:31.937Z,1015.2
2017-07-18T04:14:46.853Z,1015.2
2017-07-18T04:25:02.124Z,1015.2
2017-07-18T04:35:15.987Z,1015.2
2017-07-18T04:45:31.676Z,1015.1
2017-07-18T04:55:46.644Z,1015.1
2017-07-18T05:06:02.022Z,1015.1
2017-07-18T05:16:16.377Z,1015.1
2017-07-18T05:26:30.820Z,1015.1
2017-07-18T05:36:44.671Z,1015.1
2017-07-18T05:46:59.654Z,1015.2
2017-07-18T05:57:14.065Z,1015.3
2017-07-18T06:07:28.574Z,1015.3
2017-07-18T06:17:43.498Z,1015.3
2017-07-18T06:27:58.905Z,1015.4
2017-07-18T06:38:13.954Z,1015.3
2017-07-18T06:48:28.931Z,1015.2
2017-07-18T06:58:43.983Z,1015.1
2017-07-18T07:08:58.628Z,1015.2
2017-07-18T07:19:13.290Z,1015
2017-07-18T07:29:28.552Z,1015.2
2017-07-18T07:39:43.616Z,1015.1
2017-07-18T07:49:57.836Z,1015
2017-07-18T08:00:13.307Z,1014.9
2017-07-18T08:10:27.435Z,1015.3
2017-07-18T08:20:42.684Z,1015.4
2017-07-18T08:30:56.981Z,1015.2
2017-07-18T08:41:12.491Z,1014.8
2017-07-18T08:51:26.550Z,1014.9
2017-07-18T09:01:41.485Z,1014.7
2017-07-18T09:11:56.144Z,1014.6
2017-07-18T09:22:11.746Z,1014.5
2017-07-18T09:32:26.819Z,1014.6
2017-07-18T09:42:41.115Z,1014.5
2017-07-18T09:52:55.406Z,1014.5
2017-07-18T10:03:11.352Z,1014.6
2017-07-18T10:13:25.747Z,1014.3
2017-07-18T10:23:39.772Z,1014.2
2017-07-18T10:33:54.233Z,1014.2
2017-07-18T10:44:09.291Z,1014
2017-07-18T10:54:23.807Z,1013.9
2017-07-18T11:04:38.018Z,1013.9
2017-07-18T11:14:52.558Z,1013.6
2017-07-18T11:25:06.562Z,1013.5
2017-07-18T11:35:21.971Z,1013.4
2017-07-18T11:45:37.492Z,1013.2
2017-07-18T11:55:51.807Z,1013.1
2017-07-18T12:06:06.634Z,1013
2017-07-18T12:16:21.720Z,1012.9
2017-07-18T12:26:37.779Z,1012.9
2017-07-18T12:36:52.942Z,1013.2
2017-07-18T12:47:08.847Z,1013.1
2017-07-18T12:57:24.513Z,1013.2
2017-07-18T13:07:39.000Z,1013.5
2017-07-18T13:17:53.775Z,1013.2
2017-07-18T13:28:09.064Z,1013.2
2017-07-18T13:38:23.076Z,1014.2
2017-07-18T13:48:37.989Z,1012.9
2017-07-18T13:58:53.285Z,1012.4
2017-07-18T14:09:07.816Z,1011.8
2017-07-18T14:19:21.875Z,1011.5
2017-07-18T14:29:36.332Z,1011.4
2017-07-18T14:39:51.313Z,1011.3
2017-07-18T14:50:06.359Z,1011.2
2017-07-18T15:00:22.146Z,1011.2
2017-07-18T15:10:37.946Z,1010.9
2017-07-18T17:18:33.282Z,1009.9
2017-07-18T17:33:32.208Z,1009.9
2017-07-18T17:34:05.277Z,1009.8
2017-07-18T17:44:21.110Z,1009.9
2017-07-18T17:54:36.679Z,1009.8
2017-07-18T18:04:51.095Z,1009.8
2017-07-18T18:15:06.258Z,1009.8
2017-07-18T18:25:21.191Z,1009.8
2017-07-18T18:35:36.263Z,1009.7
2017-07-18T18:45:50.594Z,1009.6
2017-07-18T18:56:04.621Z,1009.5
2017-07-18T19:06:20.421Z,1009.5
2017-07-18T19:16:35.973Z,1009.5
2017-07-18T19:26:51.363Z,1009.5
2017-07-18T19:37:05.882Z,1009.4
2017-07-18T19:47:21.087Z,1009.3
2017-07-18T19:57:35.878Z,1009.4
2017-07-18T20:07:50.511Z,1009.3
2017-07-18T20:18:05.156Z,1009.1
2017-07-18T20:28:19.478Z,1009.1
2017-07-18T20:38:34.227Z,1009.1
2017-07-18T20:48:48.262Z,1009
2017-07-18T20:59:03.512Z,1009
2017-07-18T21:09:18.551Z,1008.9
2017-07-18T21:19:33.593Z,1008.9
2017-07-18T21:29:47.385Z,1008.8
2017-07-18T21:40:02.325Z,1008.9
2017-07-18T21:50:17.918Z,1009
2017-07-18T22:00:32.410Z,1008.9
2017-07-18T22:10:46.638Z,1008.6
2017-07-18T22:21:01.851Z,1008.6
2017-07-18T22:31:16.142Z,1008.4
2017-07-18T22:41:30.716Z,1008.4
2017-07-18T22:51:45.372Z,1008.3
2017-07-18T23:02:01.160Z,1008.3
2017-07-18T23:12:15.070Z,1008.3
2017-07-18T23:22:30.716Z,1008.2
2017-07-18T23:32:44.593Z,1008.1
2017-07-18T23:42:58.554Z,1008.1
2017-07-18T23:53:13.599Z,1008
